Tweedale, United Kingdom
Current Conditions -  °F | °C
As of 4:50 PM on Thursday 27 Nov 2014 (Local Time) from EGPH Reporting Station
Overcast Overcast  
Wind Chill: 46°   Ceiling: 300
Heat Index: 48°   Visibility: 4mi
Dew Point: 46°   Wind: 6mph
Humidity: 93%   Direction: 80°E
Pressure: 29.56"   Gusts: NA
Location:  55.75°N, 3.25°W
Report Text: EGPH 271650Z 08005KT 6000 OVC003 09/08 Q1001
Loading
Personal Weather Stations






























Interactive Weather Map New forecast layout! Learn more

10-Day Weather Forecast

Advertisements
Track Severe Weather on mobile